Time;durP1;ratioP1;P1;durP2;ratioP2;P2;SDS_P1;SDS_P2;PMS_P1;PMS_P2;Temp;Humidity;BMP_temperature;BMP_pressure;BME280_temperature;BME280_humidity;BME280_pressure;Samples;Min_cycle;Max_cycle;Signal;HPM_P1;HPM_P2
2023/05/16 00:01:17;;;;;;;2.83;2.50;;;11.00;99.90;;;;;;5055566;28;20467;-82
2023/05/16 00:03:44;;;;;;;3.97;2.60;;;11.00;99.90;;;;;;5054773;28;20507;-82
2023/05/16 00:06:12;;;;;;;3.00;2.33;;;10.90;99.90;;;;;;5054917;28;20449;-82
2023/05/16 00:08:40;;;;;;;4.17;2.83;;;11.00;99.90;;;;;;5054767;28;21018;-83
2023/05/16 00:11:06;;;;;;;2.60;2.37;;;11.00;99.90;;;;;;5054898;28;20471;-82
2023/05/16 00:13:34;;;;;;;3.03;2.73;;;11.00;99.90;;;;;;5054918;28;20530;-82
2023/05/16 00:16:01;;;;;;;3.70;3.40;;;11.00;99.90;;;;;;5054626;28;20448;-83
2023/05/16 00:18:28;;;;;;;4.73;3.27;;;11.00;99.90;;;;;;5055003;28;20494;-82
2023/05/16 00:20:55;;;;;;;4.20;3.80;;;10.90;99.90;;;;;;5054484;28;20476;-82
2023/05/16 00:23:24;;;;;;;3.83;3.53;;;11.00;99.90;;;;;;5054265;28;20463;-82
2023/05/16 00:25:51;;;;;;;3.80;3.10;;;10.90;99.90;;;;;;5054653;28;20459;-82
2023/05/16 00:28:18;;;;;;;6.73;3.60;;;10.90;99.90;;;;;;5054827;28;20566;-81
2023/05/16 00:30:44;;;;;;;3.90;3.50;;;10.90;99.90;;;;;;5054119;28;20535;-82
2023/05/16 00:33:11;;;;;;;4.43;3.50;;;10.70;99.90;;;;;;5054506;28;20906;-83
2023/05/16 00:35:38;;;;;;;4.40;2.97;;;10.70;99.90;;;;;;5054234;28;20507;-82
2023/05/16 00:38:06;;;;;;;4.40;2.80;;;10.80;99.90;;;;;;5054489;28;20450;-82
2023/05/16 00:40:34;;;;;;;5.53;3.37;;;10.90;99.90;;;;;;5054422;28;20465;-83
2023/05/16 00:43:01;;;;;;;3.87;2.60;;;10.90;99.90;;;;;;5054307;28;20448;-83
2023/05/16 00:45:28;;;;;;;4.50;2.90;;;10.90;99.90;;;;;;5054226;28;21141;-82
2023/05/16 00:47:55;;;;;;;2.70;2.50;;;10.90;99.90;;;;;;5053775;28;20437;-82
2023/05/16 00:50:22;;;;;;;3.13;2.83;;;10.80;99.90;;;;;;5062648;28;20527;-83
2023/05/16 00:52:49;;;;;;;3.27;2.80;;;10.80;99.90;;;;;;5054545;28;20869;-83
2023/05/16 00:55:16;;;;;;;3.10;2.70;;;10.80;99.90;;;;;;5054023;28;20479;-83
2023/05/16 00:57:44;;;;;;;3.27;2.97;;;10.80;99.90;;;;;;5053413;28;20852;-82
2023/05/16 01:00:14;;;;;;;3.50;3.17;;;10.50;99.90;;;;;;5054061;28;20441;-83
2023/05/16 01:02:41;;;;;;;3.50;2.60;;;10.40;99.90;;;;;;5053265;28;20525;-81
2023/05/16 01:05:09;;;;;;;3.80;3.33;;;10.40;99.90;;;;;;5053992;28;20443;-82
2023/05/16 01:07:36;;;;;;;3.47;3.13;;;10.40;99.90;;;;;;5054023;28;20523;-82
2023/05/16 01:10:04;;;;;;;3.97;3.07;;;10.40;99.90;;;;;;5053601;28;20567;-82
2023/05/16 01:12:40;;;;;;;4.73;2.80;;;10.50;99.90;;;;;;5054006;28;20522;-83
2023/05/16 01:15:12;;;;;;;3.90;3.50;;;10.70;99.90;;;;;;5053420;28;20538;-83
2023/05/16 01:17:53;;;;;;;4.37;3.80;;;10.60;99.90;;;;;;5053804;28;20471;-83
2023/05/16 01:20:30;;;;;;;2.97;2.70;;;10.40;99.90;;;;;;5053233;28;20484;-83
2023/05/16 01:23:07;;;;;;;3.80;3.33;;;10.20;99.90;;;;;;5053637;28;20865;-82
2023/05/16 01:25:55;;;;;;;5.40;3.30;;;10.20;99.90;;;;;;5053568;28;20474;-82
2023/05/16 01:28:25;;;;;;;6.03;3.10;;;10.10;99.90;;;;;;5053645;28;20448;-82
2023/05/16 01:30:52;;;;;;;3.47;3.17;;;10.10;99.90;;;;;;5053238;28;20476;-82
2023/05/16 01:33:19;;;;;;;4.03;2.97;;;10.20;99.90;;;;;;5053263;28;20543;-82
2023/05/16 01:36:01;;;;;;;3.77;3.23;;;10.40;99.90;;;;;;5053019;28;20448;-83
2023/05/16 01:38:37;;;;;;;4.40;4.00;;;10.50;99.90;;;;;;5053255;28;20537;-82
2023/05/16 01:41:13;;;;;;;3.63;3.17;;;10.60;99.90;;;;;;5053203;28;20478;-83
2023/05/16 01:43:44;;;;;;;4.10;3.70;;;10.70;99.90;;;;;;5053825;28;20439;-82
2023/05/16 01:46:15;;;;;;;3.90;3.00;;;10.70;99.90;;;;;;5051629;28;20454;-82
2023/05/16 01:48:51;;;;;;;4.03;3.47;;;10.70;99.90;;;;;;5051398;28;20983;-82
2023/05/16 01:51:21;;;;;;;4.20;3.37;;;10.60;99.90;;;;;;5051486;28;20552;-82
2023/05/16 01:53:50;;;;;;;3.67;3.37;;;10.40;99.90;;;;;;5051490;28;20521;-83
2023/05/16 01:56:17;;;;;;;5.10;3.47;;;10.40;99.90;;;;;;5051486;28;20531;-82
2023/05/16 01:58:48;;;;;;;6.17;3.33;;;10.40;99.90;;;;;;5050697;28;20472;-82
2023/05/16 02:01:15;;;;;;;4.03;3.10;;;10.50;99.90;;;;;;5052278;28;20552;-82
2023/05/16 02:03:41;;;;;;;4.17;3.77;;;10.60;99.90;;;;;;5052185;28;20475;-82
2023/05/16 02:06:08;;;;;;;3.77;3.37;;;10.70;99.90;;;;;;5051247;28;20490;-82
2023/05/16 02:08:35;;;;;;;3.93;2.53;;;10.50;99.90;;;;;;5051190;28;20439;-82
2023/05/16 02:11:02;;;;;;;4.37;3.30;;;10.40;99.90;;;;;;5050920;28;20546;-82
2023/05/16 02:13:29;;;;;;;6.00;3.70;;;10.50;99.90;;;;;;5051254;28;20525;-82
2023/05/16 02:15:57;;;;;;;3.23;2.80;;;10.60;99.90;;;;;;5050866;28;20464;-83
2023/05/16 02:18:24;;;;;;;3.27;2.80;;;10.70;99.90;;;;;;5050998;28;20936;-82
2023/05/16 02:20:52;;;;;;;4.20;2.60;;;10.60;99.90;;;;;;5051856;28;20487;-82
2023/05/16 02:23:19;;;;;;;4.20;3.80;;;10.70;99.90;;;;;;5052612;28;20972;-82
2023/05/16 02:25:46;;;;;;;4.33;3.43;;;10.70;99.90;;;;;;5052363;28;20452;-82
2023/05/16 02:28:13;;;;;;;3.63;3.33;;;10.70;99.90;;;;;;5052476;28;20444;-82
2023/05/16 02:30:40;;;;;;;6.43;2.60;;;10.70;99.90;;;;;;5051887;28;20513;-82
2023/05/16 02:33:08;;;;;;;3.63;3.33;;;10.70;99.90;;;;;;5052520;28;20439;-83
2023/05/16 02:35:35;;;;;;;4.10;3.40;;;10.70;99.90;;;;;;5050992;28;20531;-81
2023/05/16 02:38:02;;;;;;;3.80;3.50;;;10.40;99.90;;;;;;5050551;28;20471;-82
2023/05/16 02:40:29;;;;;;;3.53;3.23;;;10.30;99.90;;;;;;5050496;28;20541;-83
2023/05/16 02:42:56;;;;;;;4.47;3.20;;;10.20;99.90;;;;;;5050763;28;20467;-82
2023/05/16 02:45:22;;;;;;;3.80;3.17;;;10.30;99.90;;;;;;5050444;28;20881;-82
2023/05/16 02:47:49;;;;;;;7.20;5.00;;;10.30;99.90;;;;;;5050539;28;20479;-82
2023/05/16 02:50:18;;;;;;;4.13;3.73;;;10.40;99.90;;;;;;5050563;28;20515;-82
2023/05/16 02:52:46;;;;;;;5.50;3.90;;;10.30;99.90;;;;;;5052043;28;20539;-82
2023/05/16 02:55:12;;;;;;;5.43;3.70;;;10.20;99.90;;;;;;5051864;28;20494;-82
2023/05/16 02:57:39;;;;;;;4.10;3.70;;;10.40;99.90;;;;;;5051249;28;20539;-83
2023/05/16 03:00:10;;;;;;;6.43;3.60;;;10.50;99.90;;;;;;5051212;28;20502;-82
2023/05/16 03:02:37;;;;;;;7.73;4.77;;;10.60;99.90;;;;;;5051204;28;20450;-82
2023/05/16 03:05:05;;;;;;;4.50;3.20;;;10.60;99.90;;;;;;5051315;28;20929;-82
2023/05/16 03:07:33;;;;;;;3.43;3.03;;;10.60;99.90;;;;;;5051570;28;20945;-82
2023/05/16 03:10:00;;;;;;;5.20;3.30;;;10.70;99.90;;;;;;5051267;28;20850;-82
2023/05/16 03:12:27;;;;;;;9.77;8.77;;;10.70;99.90;;;;;;5051637;28;20470;-82
2023/05/16 03:14:54;;;;;;;6.83;6.13;;;10.60;99.90;;;;;;5051560;28;20465;-83
2023/05/16 03:17:20;;;;;;;7.93;4.80;;;10.70;99.90;;;;;;5051599;28;20491;-82
2023/05/16 03:19:48;;;;;;;3.90;3.50;;;10.70;99.90;;;;;;5051464;28;20491;-82
2023/05/16 03:22:14;;;;;;;4.20;3.80;;;10.60;99.90;;;;;;5051502;28;20476;-82
2023/05/16 03:24:43;;;;;;;4.60;3.60;;;10.30;99.90;;;;;;5051223;28;20539;-83
2023/05/16 03:27:10;;;;;;;4.13;3.27;;;10.20;99.90;;;;;;5051431;28;20435;-82
2023/05/16 03:29:37;;;;;;;4.03;3.63;;;10.20;99.90;;;;;;5051429;28;20485;-83
2023/05/16 03:32:05;;;;;;;4.60;4.20;;;10.20;99.90;;;;;;5051131;28;20539;-82
2023/05/16 03:34:32;;;;;;;5.00;4.27;;;10.20;99.90;;;;;;5052323;28;20444;-82
2023/05/16 03:36:59;;;;;;;4.50;4.10;;;10.30;99.90;;;;;;5051532;28;20888;-83
2023/05/16 03:39:26;;;;;;;4.80;3.50;;;10.20;99.90;;;;;;5051291;28;20479;-83
2023/05/16 03:41:55;;;;;;;4.20;3.67;;;10.30;99.90;;;;;;5051039;28;20540;-82
2023/05/16 03:44:23;;;;;;;5.37;3.80;;;10.30;99.90;;;;;;5051248;28;20482;-82
2023/05/16 03:46:51;;;;;;;3.90;3.60;;;10.50;99.90;;;;;;5051160;28;20964;-82
2023/05/16 03:49:19;;;;;;;5.30;3.77;;;10.50;99.90;;;;;;5051421;28;20459;-82
2023/05/16 03:51:46;;;;;;;4.80;3.80;;;10.60;99.90;;;;;;5050989;28;21002;-82
2023/05/16 03:54:14;;;;;;;4.17;3.50;;;10.40;99.90;;;;;;5051343;28;20448;-82
2023/05/16 03:56:40;;;;;;;6.47;3.30;;;10.50;99.90;;;;;;5051077;28;20456;-83
2023/05/16 03:59:09;;;;;;;4.43;3.80;;;10.60;99.90;;;;;;5050639;28;20468;-82
2023/05/16 04:01:36;;;;;;;4.10;3.73;;;10.70;99.90;;;;;;5050984;28;20534;-82
2023/05/16 04:04:02;;;;;;;3.50;3.03;;;10.70;99.90;;;;;;5050634;28;20561;-83
2023/05/16 04:06:30;;;;;;;4.40;3.63;;;10.50;99.90;;;;;;5051046;28;20889;-82
2023/05/16 04:08:57;;;;;;;4.20;3.63;;;10.40;99.90;;;;;;5050859;28;20887;-82
2023/05/16 04:11:25;;;;;;;4.20;3.50;;;10.30;99.90;;;;;;5050734;28;20570;-82
2023/05/16 04:13:52;;;;;;;4.60;4.20;;;10.20;99.90;;;;;;5051076;28;20853;-82
2023/05/16 04:16:21;;;;;;;5.30;4.27;;;10.10;99.90;;;;;;5050832;28;20439;-82
2023/05/16 04:18:48;;;;;;;6.60;4.47;;;10.00;99.90;;;;;;5050785;28;20440;-82
2023/05/16 04:21:15;;;;;;;4.80;4.10;;;10.00;99.90;;;;;;5050997;28;20518;-82
2023/05/16 04:23:42;;;;;;;4.20;3.80;;;10.00;99.90;;;;;;5054759;28;21002;-82
2023/05/16 04:26:09;;;;;;;5.00;3.60;;;10.00;99.90;;;;;;5054786;28;20818;-82
2023/05/16 04:28:36;;;;;;;5.87;4.70;;;10.10;99.90;;;;;;5054655;28;20531;-82
2023/05/16 04:31:03;;;;;;;4.93;4.40;;;10.30;99.90;;;;;;5054168;28;20588;-82
2023/05/16 04:33:31;;;;;;;4.07;3.60;;;10.30;99.90;;;;;;5054285;28;20493;-82
2023/05/16 04:35:59;;;;;;;4.03;3.63;;;10.30;99.90;;;;;;5056906;28;20455;-82
2023/05/16 04:38:26;;;;;;;5.60;4.90;;;10.30;99.90;;;;;;5060086;28;20451;-83
2023/05/16 04:40:52;;;;;;;5.00;4.13;;;10.40;99.90;;;;;;5054164;28;20458;-81
2023/05/16 04:43:20;;;;;;;5.23;4.50;;;10.50;99.90;;;;;;5054986;28;20452;-83
2023/05/16 04:45:47;;;;;;;5.67;4.30;;;10.40;99.90;;;;;;5054997;28;20487;-82
2023/05/16 04:48:14;;;;;;;5.77;4.90;;;10.30;99.90;;;;;;5054119;28;20447;-83
2023/05/16 04:50:42;;;;;;;5.97;5.37;;;10.40;99.90;;;;;;5053778;28;21085;-83
2023/05/16 04:53:09;;;;;;;5.50;5.00;;;10.50;99.90;;;;;;5053915;28;20528;-82
2023/05/16 04:55:36;;;;;;;5.00;4.47;;;10.60;99.90;;;;;;5054264;28;20479;-82
2023/05/16 04:58:03;;;;;;;5.37;4.87;;;10.60;99.90;;;;;;5053597;28;20530;-82
2023/05/16 05:00:30;;;;;;;5.77;4.83;;;10.60;99.90;;;;;;5053569;28;20548;-82
2023/05/16 05:02:57;;;;;;;6.47;5.47;;;10.70;99.90;;;;;;5053601;28;20936;-83
2023/05/16 05:05:24;;;;;;;7.33;5.00;;;10.70;99.90;;;;;;5053750;28;20435;-82
2023/05/16 05:07:52;;;;;;;5.80;5.23;;;10.60;99.90;;;;;;5054628;28;20878;-83
2023/05/16 05:10:20;;;;;;;6.07;4.77;;;10.70;99.90;;;;;;5053931;28;20896;-83
2023/05/16 05:12:46;;;;;;;6.07;4.97;;;10.80;99.90;;;;;;5053750;28;20451;-83
2023/05/16 05:15:13;;;;;;;6.93;5.50;;;10.70;99.90;;;;;;5053215;28;20522;-83
2023/05/16 05:17:40;;;;;;;7.97;6.37;;;10.80;99.90;;;;;;5053778;28;20533;-83
2023/05/16 05:20:09;;;;;;;8.30;5.47;;;10.80;99.90;;;;;;5057009;22;20880;-55
2023/05/16 05:22:36;;;;;;;6.03;5.47;;;10.80;99.90;;;;;;5071414;28;20455;-57
2023/05/16 05:25:05;;;;;;;7.83;6.30;;;10.90;99.90;;;;;;5073140;28;20522;-57
2023/05/16 05:27:32;;;;;;;6.60;5.83;;;10.80;99.90;;;;;;5073259;28;20447;-57
2023/05/16 05:29:59;;;;;;;8.03;6.53;;;10.80;99.90;;;;;;5072915;28;20577;-58
2023/05/16 05:32:26;;;;;;;7.20;6.50;;;10.70;99.90;;;;;;5072840;28;20498;-57
2023/05/16 05:34:53;;;;;;;7.30;6.47;;;10.70;99.90;;;;;;5122024;22;20480;-86
2023/05/16 05:37:20;;;;;;;7.33;6.50;;;10.70;99.90;;;;;;5094557;28;20919;-87
2023/05/16 05:39:46;;;;;;;8.30;7.30;;;10.80;99.90;;;;;;5094170;28;20935;-88
2023/05/16 05:42:15;;;;;;;8.33;6.47;;;10.80;99.90;;;;;;5094180;28;20507;-86
2023/05/16 05:44:42;;;;;;;7.67;6.97;;;10.70;99.90;;;;;;5094329;28;20466;-85
2023/05/16 05:47:09;;;;;;;7.67;6.90;;;10.80;99.90;;;;;;5094585;28;20529;-85
2023/05/16 05:49:36;;;;;;;7.17;6.40;;;10.70;99.90;;;;;;5094398;28;20829;-86
2023/05/16 05:52:03;;;;;;;6.97;6.33;;;10.80;99.90;;;;;;5094322;28;20487;-85
2023/05/16 05:54:30;;;;;;;6.30;5.70;;;10.80;99.90;;;;;;5094089;28;20465;-86
2023/05/16 05:56:57;;;;;;;7.60;6.80;;;10.80;99.90;;;;;;5094057;28;20521;-85
2023/05/16 05:59:26;;;;;;;7.07;6.37;;;10.80;99.90;;;;;;5093560;28;20520;-85
2023/05/16 06:01:53;;;;;;;7.17;6.43;;;10.90;99.90;;;;;;5093824;28;20836;-85
2023/05/16 06:04:20;;;;;;;6.60;6.00;;;10.90;99.90;;;;;;5093899;28;20495;-85
2023/05/16 06:06:47;;;;;;;6.33;5.73;;;10.90;99.90;;;;;;5094276;28;20506;-85
2023/05/16 06:09:14;;;;;;;6.23;5.70;;;10.90;99.90;;;;;;5094194;28;20530;-85
2023/05/16 06:11:42;;;;;;;6.03;5.53;;;10.90;99.90;;;;;;5093409;28;20581;-85
2023/05/16 06:14:09;;;;;;;8.50;6.60;;;10.90;99.90;;;;;;5094481;28;20935;-85
2023/05/16 06:16:38;;;;;;;13.83;11.13;;;10.90;99.90;;;;;;5094154;28;20434;-85
2023/05/16 06:19:06;;;;;;;8.40;7.10;;;10.90;99.90;;;;;;5094248;28;20478;-84
2023/05/16 06:21:32;;;;;;;19.40;13.50;;;11.00;99.90;;;;;;5094264;28;21041;-85
2023/05/16 06:23:59;;;;;;;9.23;7.20;;;10.90;99.90;;;;;;5094046;28;20506;-85
2023/05/16 06:26:26;;;;;;;9.90;7.77;;;10.90;99.90;;;;;;5092137;28;20439;-85
2023/05/16 06:28:53;;;;;;;6.90;6.30;;;11.00;99.90;;;;;;5094269;28;20484;-85
2023/05/16 06:31:20;;;;;;;6.90;6.30;;;10.80;99.90;;;;;;5094404;28;20478;-85
2023/05/16 06:33:48;;;;;;;6.57;5.97;;;10.90;99.90;;;;;;5093825;28;20493;-85
2023/05/16 06:36:15;;;;;;;5.70;5.20;;;10.80;99.90;;;;;;5094485;28;20493;-85
2023/05/16 06:38:42;;;;;;;7.00;6.07;;;10.70;99.90;;;;;;5094063;28;21050;-85
2023/05/16 06:41:09;;;;;;;6.20;5.70;;;10.80;99.90;;;;;;5093809;28;20821;-85
2023/05/16 06:43:36;;;;;;;6.00;5.40;;;10.90;99.90;;;;;;5093635;28;20860;-85
2023/05/16 06:46:03;;;;;;;6.97;6.27;;;10.90;99.90;;;;;;5093568;28;20474;-85
2023/05/16 06:48:31;;;;;;;7.47;6.77;;;10.90;99.90;;;;;;5093936;28;20511;-85
2023/05/16 06:50:59;;;;;;;6.37;5.77;;;10.90;99.90;;;;;;5094162;28;20480;-86
2023/05/16 06:53:27;;;;;;;6.20;5.60;;;11.00;99.90;;;;;;5094019;28;20488;-85
2023/05/16 06:55:54;;;;;;;6.73;5.70;;;10.90;99.90;;;;;;5093087;28;20461;-85
2023/05/16 06:58:21;;;;;;;6.10;5.50;;;10.90;99.90;;;;;;5093918;28;20443;-85
2023/05/16 07:00:50;;;;;;;5.67;5.17;;;10.70;99.90;;;;;;5093458;28;21067;-85
2023/05/16 07:03:17;;;;;;;5.50;4.90;;;10.60;99.90;;;;;;5093842;28;20442;-86
2023/05/16 07:05:44;;;;;;;6.17;5.57;;;10.80;99.90;;;;;;5093902;28;20441;-85
2023/05/16 07:08:12;;;;;;;7.00;6.40;;;10.80;99.90;;;;;;5094352;28;20451;-85
2023/05/16 07:10:39;;;;;;;6.10;5.00;;;10.90;99.90;;;;;;5093625;28;20489;-85
2023/05/16 07:13:06;;;;;;;5.70;5.20;;;10.90;99.90;;;;;;5100524;28;20443;-85
2023/05/16 07:15:33;;;;;;;6.60;6.00;;;10.90;99.90;;;;;;5092845;28;20486;-85
2023/05/16 07:18:00;;;;;;;7.87;6.17;;;10.90;99.90;;;;;;5093028;28;20470;-85
2023/05/16 07:20:27;;;;;;;6.10;5.50;;;10.90;99.90;;;;;;5092321;28;20470;-85
2023/05/16 07:22:56;;;;;;;6.00;4.63;;;11.00;99.90;;;;;;5092235;28;20927;-85
2023/05/16 07:25:25;;;;;;;6.20;5.60;;;11.00;99.90;;;;;;5093281;28;20475;-85
2023/05/16 07:27:52;;;;;;;5.80;5.30;;;11.00;99.90;;;;;;5092018;28;20447;-85
2023/05/16 07:30:19;;;;;;;6.73;5.30;;;11.00;99.90;;;;;;5092302;28;20520;-85
2023/05/16 07:32:46;;;;;;;7.20;5.83;;;11.00;99.90;;;;;;5093754;28;20499;-86
2023/05/16 07:35:13;;;;;;;6.87;6.20;;;11.00;99.90;;;;;;5091918;28;20461;-85
2023/05/16 07:37:42;;;;;;;8.53;6.53;;;11.10;99.90;;;;;;5092263;28;20446;-86
2023/05/16 07:40:10;;;;;;;6.30;5.70;;;11.10;99.90;;;;;;5092633;28;20442;-85
2023/05/16 07:42:38;;;;;;;6.40;5.80;;;11.00;99.90;;;;;;5092817;28;20424;-85
2023/05/16 07:45:07;;;;;;;6.43;5.83;;;11.10;99.90;;;;;;5092823;28;20492;-85
2023/05/16 07:47:34;;;;;;;7.20;6.00;;;11.20;99.90;;;;;;5092511;28;20945;-86
2023/05/16 07:50:01;;;;;;;7.50;6.80;;;11.20;99.90;;;;;;5091834;28;20981;-85
2023/05/16 07:52:28;;;;;;;6.73;6.13;;;11.10;99.90;;;;;;5092252;28;20541;-85
2023/05/16 07:54:55;;;;;;;6.67;5.87;;;11.20;99.90;;;;;;5093096;28;20504;-86
2023/05/16 07:57:22;;;;;;;7.63;6.93;;;11.20;99.90;;;;;;5096238;28;20752;-85
2023/05/16 07:59:51;;;;;;;6.77;6.07;;;11.20;99.90;;;;;;5096218;28;20446;-85
2023/05/16 08:02:18;;;;;;;7.47;6.40;;;11.20;99.90;;;;;;5096243;28;20955;-85
2023/05/16 08:04:45;;;;;;;37.93;27.70;;;11.10;99.90;;;;;;5096590;28;20450;-85
2023/05/16 08:07:12;;;;;;;19.37;15.80;;;11.20;99.90;;;;;;5096592;28;20511;-85
2023/05/16 08:09:39;;;;;;;7.37;6.67;;;11.20;99.90;;;;;;5096662;28;20434;-85
2023/05/16 08:12:07;;;;;;;7.17;6.57;;;11.10;99.90;;;;;;5096035;28;20517;-85
2023/05/16 08:14:35;;;;;;;6.80;6.00;;;11.10;99.90;;;;;;5096407;28;20545;-85
2023/05/16 08:17:04;;;;;;;7.00;5.90;;;11.20;99.90;;;;;;5096206;28;20495;-85
2023/05/16 08:19:31;;;;;;;8.17;7.47;;;11.20;99.90;;;;;;5095414;28;20522;-85
2023/05/16 08:21:58;;;;;;;6.80;6.20;;;11.20;99.90;;;;;;5096343;28;20466;-85
2023/05/16 08:24:25;;;;;;;6.50;5.90;;;11.20;99.90;;;;;;5096555;28;20449;-85
2023/05/16 08:26:52;;;;;;;7.20;6.27;;;11.20;99.90;;;;;;5099462;28;20439;-85
2023/05/16 08:29:19;;;;;;;6.70;6.10;;;11.20;99.90;;;;;;5094972;28;20455;-85
2023/05/16 08:31:46;;;;;;;6.40;5.90;;;11.20;99.90;;;;;;5094180;28;21045;-85
2023/05/16 08:34:14;;;;;;;6.77;6.03;;;11.10;99.90;;;;;;5095246;28;20542;-85
2023/05/16 08:36:41;;;;;;;6.83;5.77;;;11.00;99.90;;;;;;5095284;28;20484;-87
2023/05/16 08:39:10;;;;;;;6.30;5.80;;;11.10;99.90;;;;;;5094896;28;20837;-85
2023/05/16 08:41:37;;;;;;;6.77;6.00;;;11.20;99.90;;;;;;5095089;28;20458;-85
2023/05/16 08:44:05;;;;;;;7.60;6.90;;;11.20;99.90;;;;;;5095020;28;20943;-86
2023/05/16 08:46:34;;;;;;;7.07;6.40;;;11.10;99.90;;;;;;5094796;28;20440;-85
2023/05/16 08:49:03;;;;;;;6.80;6.10;;;11.10;99.90;;;;;;5093646;28;20497;-85
2023/05/16 08:51:35;;;;;;;6.40;5.77;;;11.00;99.90;;;;;;5089324;28;20569;-85
2023/05/16 08:54:05;;;;;;;6.50;5.80;;;11.00;99.90;;;;;;5088583;28;20450;-85
2023/05/16 08:56:34;;;;;;;5.97;5.33;;;11.00;99.90;;;;;;5094129;28;21001;-86
2023/05/16 08:59:02;;;;;;;6.47;5.87;;;11.10;99.90;;;;;;5093710;28;20534;-85
2023/05/16 09:01:30;;;;;;;7.13;6.43;;;11.30;99.90;;;;;;5093974;28;20461;-85
2023/05/16 09:03:57;;;;;;;6.13;5.53;;;11.30;99.90;;;;;;5094808;28;20439;-85
2023/05/16 09:06:25;;;;;;;5.87;5.37;;;11.30;99.90;;;;;;5094603;28;20474;-85
2023/05/16 09:08:53;;;;;;;7.57;6.20;;;11.30;99.90;;;;;;5094036;28;20541;-85
2023/05/16 09:11:21;;;;;;;6.53;5.83;;;11.40;99.90;;;;;;5094678;28;20525;-85
2023/05/16 09:13:48;;;;;;;6.60;6.00;;;11.40;99.90;;;;;;5094613;28;20444;-85
2023/05/16 09:16:16;;;;;;;7.50;6.87;;;11.40;99.90;;;;;;5095175;28;20493;-85
2023/05/16 09:18:44;;;;;;;8.23;7.43;;;11.50;99.90;;;;;;5096370;28;20439;-86
2023/05/16 09:21:12;;;;;;;7.80;6.97;;;11.40;99.90;;;;;;5094574;28;20531;-85
2023/05/16 09:23:39;;;;;;;7.17;6.53;;;11.50;99.90;;;;;;5095176;28;20494;-85
2023/05/16 09:26:08;;;;;;;7.20;6.50;;;11.40;99.90;;;;;;5095154;28;20457;-85
2023/05/16 09:28:38;;;;;;;8.40;7.60;;;11.50;99.90;;;;;;5094851;28;20496;-85
2023/05/16 09:31:19;;;;;;;7.53;6.93;;;11.60;99.90;;;;;;5093945;28;20475;-85
2023/05/16 09:33:45;;;;;;;11.03;9.40;;;11.60;99.90;;;;;;5094149;28;20529;-85
2023/05/16 09:36:13;;;;;;;10.70;9.27;;;11.60;99.90;;;;;;5094892;28;20450;-84
2023/05/16 09:38:40;;;;;;;9.43;8.43;;;11.60;99.90;;;;;;5095544;28;20440;-86
2023/05/16 09:41:11;;;;;;;8.97;8.10;;;11.60;99.90;;;;;;5094259;28;20451;-86
2023/05/16 09:43:39;;;;;;;9.80;8.33;;;11.50;99.90;;;;;;5095384;28;20434;-86
2023/05/16 09:46:06;;;;;;;9.30;8.30;;;11.70;99.90;;;;;;5094768;28;20859;-86
2023/05/16 09:48:33;;;;;;;10.10;8.23;;;11.70;99.90;;;;;;5095482;28;20575;-86
2023/05/16 09:51:05;;;;;;;8.73;7.83;;;11.60;99.90;;;;;;5096965;28;20508;-86
2023/05/16 09:53:33;;;;;;;8.43;7.60;;;11.60;99.90;;;;;;5095425;28;20442;-86
2023/05/16 09:56:03;;;;;;;9.10;6.23;;;11.60;99.90;;;;;;5095498;28;20538;-86
2023/05/16 09:58:33;;;;;;;6.40;5.80;;;11.60;99.90;;;;;;5093831;28;20495;-86
2023/05/16 10:01:01;;;;;;;7.63;5.97;;;11.60;99.90;;;;;;5094798;28;20558;-85
2023/05/16 10:03:28;;;;;;;6.90;6.20;;;11.70;99.90;;;;;;5094308;28;20933;-85
2023/05/16 10:05:56;;;;;;;6.97;6.37;;;11.70;99.90;;;;;;5094134;28;20459;-85
2023/05/16 10:08:25;;;;;;;7.17;6.20;;;11.70;99.90;;;;;;5097060;28;20492;-85
2023/05/16 10:10:53;;;;;;;7.33;6.63;;;11.80;99.90;;;;;;5094008;28;20895;-86
2023/05/16 10:13:22;;;;;;;7.30;6.60;;;11.80;99.90;;;;;;5094069;28;20919;-86
2023/05/16 10:15:51;;;;;;;7.50;6.20;;;11.80;99.90;;;;;;5094543;28;20466;-86
2023/05/16 10:18:21;;;;;;;7.73;7.03;;;11.80;99.90;;;;;;5095559;28;20513;-86
2023/05/16 10:20:52;;;;;;;7.57;6.83;;;11.90;99.90;;;;;;5094523;28;20518;-86
2023/05/16 10:23:21;;;;;;;7.50;6.83;;;11.90;99.90;;;;;;5094535;28;20517;-86
2023/05/16 10:25:49;;;;;;;8.83;7.93;;;11.90;99.90;;;;;;5085578;28;20948;-86
2023/05/16 10:28:16;;;;;;;8.63;7.73;;;11.90;99.90;;;;;;5085651;28;20447;-86
2023/05/16 10:30:44;;;;;;;8.90;7.73;;;12.00;99.90;;;;;;5085960;28;20457;-86
2023/05/16 10:33:17;;;;;;;10.10;7.97;;;12.00;99.90;;;;;;5085418;28;20484;-85
2023/05/16 10:35:45;;;;;;;8.40;7.60;;;12.00;99.90;;;;;;5082033;28;20948;-85
2023/05/16 10:38:14;;;;;;;7.70;7.00;;;12.00;99.90;;;;;;5081289;28;20463;-86
2023/05/16 10:40:42;;;;;;;6.97;6.33;;;12.00;99.90;;;;;;5089269;28;20518;-85
2023/05/16 10:43:09;;;;;;;7.63;6.90;;;12.00;99.90;;;;;;5079672;28;20953;-86
2023/05/16 10:45:41;;;;;;;7.10;6.40;;;12.00;99.90;;;;;;5080525;28;20545;-85
2023/05/16 10:48:12;;;;;;;7.30;6.13;;;12.00;99.90;;;;;;5086936;28;20463;-86
2023/05/16 10:50:42;;;;;;;6.90;6.30;;;12.10;99.90;;;;;;5092616;28;20464;-84
2023/05/16 10:53:14;;;;;;;7.20;6.53;;;12.10;99.90;;;;;;5084939;28;20511;-84
2023/05/16 10:55:45;;;;;;;7.37;6.47;;;12.10;99.90;;;;;;5088398;28;20448;-85
2023/05/16 10:58:12;;;;;;;8.20;7.30;;;12.10;99.90;;;;;;5085020;28;20534;-84
2023/05/16 11:00:40;;;;;;;7.80;7.00;;;12.10;99.90;;;;;;5086468;28;20543;-85
2023/05/16 11:03:23;;;;;;;7.83;7.20;;;12.10;99.90;;;;;;5088304;28;20618;-85
2023/05/16 11:05:53;;;;;;;6.80;6.20;;;12.10;99.90;;;;;;5089493;28;20952;-86
2023/05/16 11:08:20;;;;;;;6.30;5.70;;;12.10;99.90;;;;;;5088998;28;20456;-84
2023/05/16 11:10:47;;;;;;;6.47;5.87;;;12.10;99.90;;;;;;5083556;28;20493;-85
2023/05/16 11:13:18;;;;;;;7.50;6.80;;;12.00;99.90;;;;;;5088452;28;20483;-84
2023/05/16 11:15:45;;;;;;;6.93;6.33;;;12.00;99.90;;;;;;5087402;28;20467;-85
2023/05/16 11:18:15;;;;;;;8.33;7.53;;;11.90;99.90;;;;;;5090018;28;20503;-85
2023/05/16 11:20:42;;;;;;;11.00;8.93;;;11.90;99.90;;;;;;5104138;22;20547;-55
2023/05/16 11:23:22;;;;;;;8.33;7.53;;;11.90;99.90;;;;;;5050770;28;20446;-55
2023/05/16 11:25:52;;;;;;;7.70;7.00;;;12.00;99.90;;;;;;5050732;28;20541;-55
2023/05/16 11:28:20;;;;;;;8.93;8.03;;;12.00;99.90;;;;;;5051114;28;20455;-55
2023/05/16 11:30:49;;;;;;;8.87;8.07;;;12.00;99.90;;;;;;5051222;28;20530;-54
2023/05/16 11:33:16;;;;;;;8.57;7.77;;;11.90;99.90;;;;;;5054508;28;21025;-54
2023/05/16 11:35:43;;;;;;;9.70;8.70;;;12.00;99.90;;;;;;5095047;22;20574;-85
2023/05/16 11:38:15;;;;;;;8.60;7.80;;;12.00;99.90;;;;;;5095240;28;20875;-86
2023/05/16 11:40:46;;;;;;;8.20;6.40;;;12.00;99.90;;;;;;5094274;28;20450;-85
2023/05/16 11:43:19;;;;;;;5.73;5.23;;;11.90;99.90;;;;;;5094513;28;20526;-85
2023/05/16 11:45:46;;;;;;;6.20;5.30;;;11.90;99.90;;;;;;5094657;28;20559;-85
2023/05/16 11:48:13;;;;;;;4.50;4.10;;;11.80;99.90;;;;;;5110427;22;20486;-53
2023/05/16 11:50:40;;;;;;;6.03;3.60;;;11.80;99.90;;;;;;5094180;28;20528;-53
2023/05/16 11:53:07;;;;;;;3.53;3.20;;;11.80;99.90;;;;;;5094600;28;20527;-54
2023/05/16 11:55:35;;;;;;;3.40;2.50;;;11.80;99.90;;;;;;5094850;28;20550;-55
2023/05/16 11:58:04;;;;;;;4.87;2.10;;;11.70;99.90;;;;;;5092451;28;20482;-54
2023/05/16 12:00:31;;;;;;;2.80;2.30;;;11.70;99.90;;;;;;5094010;28;20445;-55
2023/05/16 12:03:03;;;;;;;2.10;1.90;;;11.80;99.90;;;;;;5093877;28;21177;-55
2023/05/16 12:05:31;;;;;;;2.83;2.50;;;11.80;99.90;;;;;;5093917;28;21028;-54
2023/05/16 12:07:58;;;;;;;8.57;6.03;;;11.80;99.90;;;;;;5093830;28;20443;-54
2023/05/16 12:10:25;;;;;;;4.87;4.47;;;11.80;99.90;;;;;;5094238;28;20450;-55
2023/05/16 12:12:54;;;;;;;10.63;6.17;;;11.60;99.90;;;;;;5093772;28;20947;-53
2023/05/16 12:15:22;;;;;;;6.47;5.20;;;11.70;99.90;;;;;;5094189;28;20871;-53
2023/05/16 12:17:50;;;;;;;7.50;6.37;;;11.80;99.90;;;;;;5094056;28;20528;-55
2023/05/16 12:20:18;;;;;;;5.30;4.80;;;11.70;99.90;;;;;;5093802;28;20544;-53
2023/05/16 12:22:46;;;;;;;4.50;4.10;;;11.70;99.90;;;;;;5094282;28;20992;-55
2023/05/16 12:25:25;;;;;;;4.70;4.30;;;11.70;99.90;;;;;;5093904;28;20551;-53
2023/05/16 12:27:53;;;;;;;5.50;5.00;;;11.70;99.90;;;;;;5094137;28;20466;-53
2023/05/16 12:30:24;;;;;;;6.23;5.70;;;11.70;99.90;;;;;;5094192;28;20906;-53
2023/05/16 12:32:56;;;;;;;6.33;5.73;;;11.70;99.90;;;;;;5093676;28;20483;-53
2023/05/16 12:35:24;;;;;;;8.70;5.87;;;11.70;99.90;;;;;;5094042;28;20462;-53
2023/05/16 12:37:51;;;;;;;6.33;5.37;;;11.70;99.90;;;;;;5094135;28;20479;-55
2023/05/16 12:40:19;;;;;;;5.27;4.77;;;11.80;99.90;;;;;;5093519;28;20822;-53
2023/05/16 12:42:49;;;;;;;5.07;4.57;;;11.80;99.90;;;;;;5092518;28;20448;-55
2023/05/16 12:45:16;;;;;;;4.90;4.50;;;11.90;99.90;;;;;;5090462;28;21256;-54
2023/05/16 12:47:45;;;;;;;5.20;4.70;;;11.90;99.90;;;;;;5083621;28;20437;-53
2023/05/16 12:50:15;;;;;;;4.70;4.27;;;11.90;99.90;;;;;;5084065;28;20951;-53